Time;durP1;ratioP1;P1;durP2;ratioP2;P2;SDS_P1;SDS_P2;PMS_P1;PMS_P2;Temp;Humidity;BMP_temperature;BMP_pressure;BME280_temperature;BME280_humidity;BME280_pressure;Samples;Min_cycle;Max_cycle;Signal;HPM_P1;HPM_P2
2023/10/21 00:00:23;;;;;;;20.20;14.20;;;13.10;69.60;;;;;;5009983;28;20243;-91
2023/10/21 00:02:50;;;;;;;23.73;14.47;;;13.20;69.70;;;;;;5004091;28;20214;-91
2023/10/21 00:05:16;;;;;;;22.27;14.30;;;13.10;69.30;;;;;;5015752;28;20186;-90
2023/10/21 00:07:43;;;;;;;21.30;14.90;;;13.20;69.30;;;;;;5013670;28;20175;-90
2023/10/21 00:10:09;;;;;;;21.70;14.77;;;13.10;69.10;;;;;;5013490;28;20171;-93
2023/10/21 00:12:35;;;;;;;21.60;15.03;;;13.20;69.60;;;;;;5008929;28;20287;-92
2023/10/21 00:15:01;;;;;;;27.57;16.20;;;13.20;69.40;;;;;;5012999;28;20202;-93
2023/10/21 00:17:28;;;;;;;19.60;14.93;;;13.20;69.10;;;;;;5009285;28;20172;-92
2023/10/21 00:19:54;;;;;;;22.87;14.77;;;13.10;69.30;;;;;;4995908;28;20234;-91
2023/10/21 00:22:19;;;;;;;21.20;14.80;;;13.20;69.60;;;;;;5012542;28;20182;-92
2023/10/21 00:24:45;;;;;;;23.43;15.20;;;13.10;69.40;;;;;;5007476;28;20199;-90
2023/10/21 00:27:10;;;;;;;19.77;14.40;;;13.10;69.50;;;;;;5006938;28;20191;-91
2023/10/21 00:29:36;;;;;;;25.10;16.43;;;13.10;69.60;;;;;;5010941;28;20219;-91
2023/10/21 00:32:04;;;;;;;22.13;14.73;;;13.10;69.70;;;;;;4997439;28;20227;-91
2023/10/21 00:34:30;;;;;;;23.47;16.17;;;13.10;70.00;;;;;;5013363;28;20266;-91
2023/10/21 00:36:56;;;;;;;19.33;14.60;;;13.20;69.80;;;;;;5005719;28;20222;-91
2023/10/21 00:39:22;;;;;;;21.03;14.93;;;13.20;69.40;;;;;;5004585;28;20179;-90
2023/10/21 00:41:47;;;;;;;22.83;16.17;;;13.10;69.50;;;;;;5019767;28;20179;-90
2023/10/21 00:44:13;;;;;;;22.70;16.53;;;13.10;69.80;;;;;;5012759;28;20273;-90
2023/10/21 00:46:40;;;;;;;23.90;15.27;;;13.10;70.10;;;;;;5012960;28;20187;-91
2023/10/21 00:49:06;;;;;;;19.43;15.57;;;13.20;70.10;;;;;;5009873;28;20175;-91
2023/10/21 00:51:33;;;;;;;21.60;15.23;;;13.20;69.70;;;;;;5009946;28;20205;-92
2023/10/21 00:54:01;;;;;;;20.63;16.83;;;13.20;69.90;;;;;;5012224;28;20186;-90
2023/10/21 00:56:27;;;;;;;27.17;16.43;;;13.10;69.80;;;;;;5006870;28;20176;-92
2023/10/21 00:58:53;;;;;;;22.87;16.20;;;13.10;70.00;;;;;;5011217;28;20611;-90
2023/10/21 01:01:18;;;;;;;22.33;16.43;;;13.20;70.20;;;;;;5014704;28;20202;-91
2023/10/21 01:03:44;;;;;;;28.23;16.67;;;13.30;70.00;;;;;;5007881;28;20176;-90
2023/10/21 01:06:10;;;;;;;23.90;15.90;;;13.30;69.60;;;;;;5010519;28;20233;-92
2023/10/21 01:08:43;;;;;;;24.57;16.40;;;13.20;69.50;;;;;;5011987;28;20237;-90
2023/10/21 01:11:12;;;;;;;21.40;16.37;;;13.20;69.80;;;;;;5001207;28;20190;-91
2023/10/21 01:13:38;;;;;;;22.93;16.17;;;13.20;70.20;;;;;;5016800;28;20258;-91
2023/10/21 01:16:04;;;;;;;20.00;15.67;;;13.20;70.20;;;;;;5017058;28;20547;-90
2023/10/21 01:18:33;;;;;;;21.33;15.70;;;13.30;70.20;;;;;;5016912;28;20194;-90
2023/10/21 01:21:01;;;;;;;24.33;16.47;;;13.30;70.00;;;;;;5016566;28;20183;-91
2023/10/21 01:23:27;;;;;;;21.17;15.77;;;13.30;70.00;;;;;;5011533;28;20246;-92
2023/10/21 01:25:54;;;;;;;24.50;16.00;;;13.30;70.10;;;;;;5014608;28;20176;-90
2023/10/21 01:28:19;;;;;;;18.93;13.93;;;13.30;70.00;;;;;;5017796;28;20692;-91
2023/10/21 01:30:45;;;;;;;23.20;15.90;;;13.40;70.20;;;;;;5013992;28;20226;-91
2023/10/21 01:33:10;;;;;;;21.33;15.97;;;13.40;69.90;;;;;;5012000;28;20214;-90
2023/10/21 01:35:36;;;;;;;32.23;18.33;;;13.40;69.80;;;;;;5012695;28;20217;-92
2023/10/21 01:38:02;;;;;;;23.70;16.87;;;13.40;69.90;;;;;;5012743;28;20175;-90
2023/10/21 01:40:27;;;;;;;24.70;16.13;;;13.30;69.60;;;;;;5013907;28;20229;-90
2023/10/21 01:42:53;;;;;;;24.50;16.40;;;13.30;70.00;;;;;;4998083;28;20660;-91
2023/10/21 01:45:19;;;;;;;25.33;18.27;;;13.30;70.00;;;;;;5005973;28;20199;-90
2023/10/21 01:47:50;;;;;;;24.37;17.10;;;13.20;70.40;;;;;;5021216;28;20210;-90
2023/10/21 01:50:16;;;;;;;23.63;17.67;;;13.30;70.30;;;;;;5012945;28;20191;-89
2023/10/21 01:52:42;;;;;;;23.13;16.20;;;13.30;70.20;;;;;;4997707;28;20215;-91
2023/10/21 01:55:11;;;;;;;22.60;17.27;;;13.30;70.20;;;;;;5016866;28;20179;-91
2023/10/21 01:57:37;;;;;;;22.90;16.83;;;13.30;70.20;;;;;;5015197;28;20187;-91
2023/10/21 02:00:05;;;;;;;22.03;15.73;;;13.40;70.30;;;;;;5008611;28;20663;-90
2023/10/21 02:02:31;;;;;;;23.10;18.17;;;13.40;70.30;;;;;;5012232;28;20274;-92
2023/10/21 02:04:57;;;;;;;31.40;17.30;;;13.40;70.20;;;;;;5015167;28;20207;-91
2023/10/21 02:07:22;;;;;;;25.50;16.93;;;13.40;70.10;;;;;;5015597;28;20178;-90
2023/10/21 02:09:48;;;;;;;21.83;16.73;;;13.40;70.00;;;;;;5012098;28;20186;-91
2023/10/21 02:12:14;;;;;;;19.27;15.83;;;13.40;70.20;;;;;;5014386;28;20225;-90
2023/10/21 02:14:39;;;;;;;23.70;17.23;;;13.40;70.20;;;;;;5015258;28;20185;-92
2023/10/21 02:17:05;;;;;;;22.53;17.67;;;13.40;70.30;;;;;;5015325;28;20282;-90
2023/10/21 02:19:31;;;;;;;23.70;16.43;;;13.40;70.40;;;;;;5015205;28;20171;-92
2023/10/21 02:21:56;;;;;;;25.63;17.17;;;13.40;70.20;;;;;;5009576;28;20188;-91
2023/10/21 02:24:22;;;;;;;25.97;17.27;;;13.50;70.30;;;;;;5008351;28;20274;-93
2023/10/21 02:26:49;;;;;;;23.43;18.83;;;13.40;70.20;;;;;;5006436;28;20179;-90
2023/10/21 02:29:15;;;;;;;25.47;17.97;;;13.30;70.40;;;;;;4996127;28;20234;-90
2023/10/21 02:31:41;;;;;;;23.67;16.77;;;13.40;70.50;;;;;;5031291;28;20194;-92
2023/10/21 02:34:07;;;;;;;23.53;16.70;;;13.40;70.50;;;;;;5028656;28;20226;-92
2023/10/21 02:36:34;;;;;;;25.97;17.63;;;13.40;70.50;;;;;;5014857;28;20167;-92
2023/10/21 02:38:59;;;;;;;20.00;15.67;;;13.40;70.50;;;;;;5010346;28;20187;-90
2023/10/21 02:41:26;;;;;;;20.47;17.03;;;13.40;70.40;;;;;;4997685;28;20176;-91
2023/10/21 02:43:52;;;;;;;22.20;16.60;;;13.40;70.60;;;;;;5014690;28;20278;-91
2023/10/21 02:46:18;;;;;;;23.87;16.57;;;13.40;70.50;;;;;;5014165;28;20202;-91
2023/10/21 02:48:45;;;;;;;23.60;15.97;;;13.40;70.80;;;;;;5015063;28;20226;-92
2023/10/21 02:51:15;;;;;;;24.03;16.13;;;13.50;70.60;;;;;;5003228;28;20556;-91
2023/10/21 02:53:41;;;;;;;20.33;16.67;;;13.50;70.60;;;;;;5001319;28;20274;-90
2023/10/21 02:56:07;;;;;;;26.13;17.97;;;13.50;70.40;;;;;;5014450;28;20175;-91
2023/10/21 02:58:34;;;;;;;22.80;17.87;;;13.50;70.40;;;;;;5000893;28;20243;-91
2023/10/21 03:01:17;;;;;;;23.67;20.00;;;13.60;70.30;;;;;;5007445;28;20640;-92
2023/10/21 03:03:45;;;;;;;29.10;19.80;;;13.50;70.00;;;;;;5009437;28;20190;-92
2023/10/21 03:06:16;;;;;;;22.37;18.50;;;13.50;70.20;;;;;;5013629;28;20662;-90
2023/10/21 03:08:42;;;;;;;22.57;16.67;;;13.60;70.50;;;;;;5014468;28;20189;-89
2023/10/21 03:11:08;;;;;;;18.40;14.30;;;13.60;70.40;;;;;;5014416;28;20176;-90
2023/10/21 03:13:38;;;;;;;22.50;16.17;;;13.60;70.10;;;;;;5013997;28;20358;-90
2023/10/21 03:16:08;;;;;;;19.17;15.33;;;13.50;70.10;;;;;;5011216;28;20274;-91
2023/10/21 03:18:35;;;;;;;18.43;15.03;;;13.50;70.40;;;;;;5024500;28;20215;-91
2023/10/21 03:21:00;;;;;;;18.90;14.80;;;13.60;70.70;;;;;;5014195;28;20187;-91
2023/10/21 03:23:26;;;;;;;19.00;15.43;;;13.60;70.60;;;;;;5010779;28;20238;-91
2023/10/21 03:25:59;;;;;;;21.07;15.40;;;13.60;70.30;;;;;;5011128;28;20187;-92
2023/10/21 03:28:26;;;;;;;22.00;15.27;;;13.60;70.50;;;;;;5007247;28;20183;-91
2023/10/21 03:30:56;;;;;;;19.70;15.43;;;13.70;70.50;;;;;;5009532;28;20195;-92
2023/10/21 03:33:22;;;;;;;20.80;14.10;;;13.80;70.20;;;;;;5006448;28;20622;-92
2023/10/21 03:36:01;;;;;;;17.57;14.77;;;13.80;69.60;;;;;;5000795;28;20281;-92
2023/10/21 03:38:27;;;;;;;20.30;15.43;;;13.70;69.60;;;;;;5011328;28;20258;-91
2023/10/21 03:41:12;;;;;;;17.63;14.33;;;13.70;70.00;;;;;;5013274;28;20657;-91
2023/10/21 03:43:37;;;;;;;17.23;14.83;;;13.80;70.10;;;;;;5023642;28;20229;-90
2023/10/21 03:46:08;;;;;;;19.47;15.50;;;13.70;69.90;;;;;;5008365;28;20278;-90
2023/10/21 03:48:35;;;;;;;19.13;15.07;;;13.70;70.10;;;;;;4998940;28;20180;-90
2023/10/21 03:51:06;;;;;;;19.30;14.43;;;13.60;70.10;;;;;;5001154;28;20274;-90
2023/10/21 03:53:34;;;;;;;20.77;15.93;;;13.70;70.30;;;;;;4996182;28;20241;-89
2023/10/21 03:56:01;;;;;;;18.83;15.77;;;13.60;70.00;;;;;;5012978;28;20179;-90
2023/10/21 03:58:27;;;;;;;19.37;15.93;;;13.60;70.20;;;;;;5013582;28;20174;-90
2023/10/21 04:00:54;;;;;;;21.80;16.10;;;13.80;70.60;;;;;;5012637;28;20241;-91
2023/10/21 04:03:20;;;;;;;17.13;15.23;;;13.60;70.40;;;;;;5004387;28;20190;-91
2023/10/21 04:05:46;;;;;;;20.43;15.07;;;13.70;70.40;;;;;;5012932;28;20211;-90
2023/10/21 04:08:11;;;;;;;18.67;15.50;;;13.60;70.40;;;;;;5013155;28;20211;-90
2023/10/21 04:10:37;;;;;;;20.93;16.73;;;13.80;70.60;;;;;;5009884;28;20836;-90
2023/10/21 04:13:03;;;;;;;17.33;15.37;;;13.80;70.20;;;;;;5009711;28;20280;-91
2023/10/21 04:15:29;;;;;;;18.70;16.53;;;13.90;70.00;;;;;;5013012;28;20168;-91
2023/10/21 04:17:55;;;;;;;19.53;15.53;;;14.00;69.70;;;;;;5006960;28;20651;-89
2023/10/21 04:20:21;;;;;;;18.87;16.13;;;13.90;69.50;;;;;;4995814;28;20183;-88
2023/10/21 04:22:47;;;;;;;18.50;15.70;;;13.80;69.20;;;;;;4994350;28;20578;-90
2023/10/21 04:25:13;;;;;;;21.93;16.03;;;13.90;69.60;;;;;;5011231;28;20237;-91
2023/10/21 04:27:39;;;;;;;18.93;15.20;;;13.60;69.90;;;;;;5012928;28;20204;-90
2023/10/21 04:30:05;;;;;;;20.47;16.00;;;13.60;70.20;;;;;;5007137;28;20535;-90
2023/10/21 04:32:31;;;;;;;22.50;15.37;;;13.70;70.30;;;;;;5012930;28;20222;-92
2023/10/21 04:34:58;;;;;;;19.73;15.90;;;13.80;70.40;;;;;;5012442;28;20175;-90
2023/10/21 04:37:24;;;;;;;20.07;16.93;;;13.70;70.30;;;;;;5008215;28;20194;-92
2023/10/21 04:39:49;;;;;;;20.47;16.57;;;13.60;70.50;;;;;;5008147;28;20270;-90
2023/10/21 04:42:15;;;;;;;19.93;16.57;;;13.60;70.70;;;;;;5002085;28;20541;-91
2023/10/21 04:44:41;;;;;;;19.30;16.67;;;13.60;70.60;;;;;;5009899;28;20242;-92
2023/10/21 04:47:07;;;;;;;24.13;17.23;;;13.70;70.70;;;;;;5009262;28;20176;-93
2023/10/21 04:49:32;;;;;;;24.27;18.27;;;13.70;70.40;;;;;;5012608;28;20604;-92
2023/10/21 04:51:58;;;;;;;22.70;18.10;;;13.80;70.30;;;;;;5012087;28;20210;-92
2023/10/21 04:54:24;;;;;;;25.40;19.47;;;13.80;70.20;;;;;;5005375;28;20310;-90
2023/10/21 04:56:49;;;;;;;22.33;16.80;;;13.80;70.30;;;;;;4997483;28;20262;-91
2023/10/21 04:59:15;;;;;;;22.20;17.43;;;13.90;70.40;;;;;;5013288;28;20534;-91
2023/10/21 05:01:41;;;;;;;25.00;17.67;;;13.90;70.00;;;;;;5013219;28;20285;-91
2023/10/21 05:04:06;;;;;;;21.27;17.23;;;13.90;69.70;;;;;;5016563;28;20193;-93
2023/10/21 05:06:32;;;;;;;24.00;17.43;;;13.90;70.40;;;;;;5008691;28;20176;-92
2023/10/21 05:08:58;;;;;;;19.87;16.23;;;13.90;69.70;;;;;;4996869;28;20191;-93
2023/10/21 05:11:24;;;;;;;24.43;17.87;;;13.90;69.60;;;;;;5015860;28;20199;-93
2023/10/21 05:13:49;;;;;;;18.90;15.67;;;13.80;70.00;;;;;;5012573;28;20328;-90
2023/10/21 05:16:15;;;;;;;19.37;16.87;;;13.80;70.30;;;;;;5014685;28;20186;-89
2023/10/21 05:18:41;;;;;;;22.30;17.43;;;13.80;70.40;;;;;;5014978;28;20785;-89
2023/10/21 05:21:07;;;;;;;29.17;19.60;;;13.80;70.00;;;;;;5012585;28;20678;-89
2023/10/21 05:23:34;;;;;;;23.23;19.03;;;13.80;70.20;;;;;;5015047;28;20260;-89
2023/10/21 05:26:00;;;;;;;27.67;19.43;;;13.80;70.20;;;;;;5016584;28;20183;-89
2023/10/21 05:28:25;;;;;;;24.13;19.10;;;13.80;70.30;;;;;;5013298;28;20279;-89
2023/10/21 05:30:51;;;;;;;23.70;19.23;;;13.90;70.60;;;;;;5013759;28;20217;-91
2023/10/21 05:33:17;;;;;;;22.97;17.80;;;13.90;70.30;;;;;;5015768;28;20207;-92
2023/10/21 05:35:42;;;;;;;23.37;19.70;;;13.90;69.90;;;;;;5015333;28;20240;-90
2023/10/21 05:38:08;;;;;;;23.47;18.10;;;13.90;70.00;;;;;;5015332;28;20538;-89
2023/10/21 05:40:35;;;;;;;20.87;16.97;;;13.80;70.00;;;;;;5011318;28;20188;-89
2023/10/21 05:43:01;;;;;;;24.10;17.03;;;13.80;70.20;;;;;;5010600;28;20237;-90
2023/10/21 05:45:26;;;;;;;24.47;18.93;;;13.90;70.50;;;;;;5008275;28;20624;-88
2023/10/21 05:47:53;;;;;;;27.80;19.33;;;13.90;70.40;;;;;;5001435;28;20541;-90
2023/10/21 05:50:21;;;;;;;23.60;18.73;;;13.90;70.00;;;;;;5014540;28;20221;-89
2023/10/21 05:52:47;;;;;;;28.93;21.13;;;13.90;70.40;;;;;;5015559;28;20378;-89
2023/10/21 05:55:13;;;;;;;23.10;19.17;;;13.90;70.40;;;;;;5011532;28;20282;-90
2023/10/21 05:57:39;;;;;;;24.10;19.93;;;13.90;70.50;;;;;;5002648;28;20636;-92
2023/10/21 06:00:06;;;;;;;23.40;18.37;;;13.90;70.10;;;;;;5019318;28;20186;-90
2023/10/21 06:02:31;;;;;;;27.07;19.20;;;13.90;70.20;;;;;;5014382;28;20711;-90
2023/10/21 06:04:57;;;;;;;22.67;19.77;;;13.90;70.40;;;;;;5015339;28;20339;-90
2023/10/21 06:07:23;;;;;;;27.40;19.37;;;13.80;70.60;;;;;;4996916;28;20655;-91
2023/10/21 06:09:48;;;;;;;27.37;20.30;;;14.00;70.80;;;;;;5004969;28;20191;-91
2023/10/21 06:12:14;;;;;;;27.37;20.70;;;14.00;70.40;;;;;;5020289;28;20623;-91
2023/10/21 06:14:39;;;;;;;22.27;18.87;;;14.00;70.30;;;;;;5014827;28;20187;-91
2023/10/21 06:17:05;;;;;;;26.73;20.07;;;14.00;70.30;;;;;;5015292;28;20182;-90
2023/10/21 06:19:31;;;;;;;25.43;20.77;;;13.90;70.20;;;;;;5015254;28;20186;-89
2023/10/21 06:21:56;;;;;;;25.37;19.80;;;14.00;70.60;;;;;;5014287;28;20659;-89
2023/10/21 06:24:22;;;;;;;23.97;20.47;;;14.00;70.80;;;;;;5014757;28;20194;-89
2023/10/21 06:26:47;;;;;;;27.47;21.20;;;14.10;70.40;;;;;;5014493;28;20195;-90
2023/10/21 06:29:13;;;;;;;26.23;19.20;;;14.10;70.30;;;;;;5014584;28;20184;-89
2023/10/21 06:31:39;;;;;;;27.83;19.77;;;14.10;70.40;;;;;;5014201;28;20186;-92
2023/10/21 06:34:05;;;;;;;21.90;19.30;;;14.00;70.30;;;;;;5014704;28;20187;-90
2023/10/21 06:36:31;;;;;;;28.17;21.17;;;14.00;70.80;;;;;;5015844;28;20203;-90
2023/10/21 06:38:57;;;;;;;21.50;18.27;;;14.10;70.80;;;;;;5015067;28;20671;-91
2023/10/21 06:41:23;;;;;;;25.13;19.30;;;14.20;70.60;;;;;;5015162;28;20176;-91
2023/10/21 06:43:49;;;;;;;22.80;18.87;;;14.20;70.50;;;;;;5014582;28;20230;-89
2023/10/21 06:46:15;;;;;;;25.23;20.37;;;14.30;70.70;;;;;;5014302;28;20194;-90
2023/10/21 06:48:41;;;;;;;30.07;19.60;;;14.30;70.40;;;;;;5014270;28;20179;-90
2023/10/21 06:51:07;;;;;;;25.97;19.17;;;14.30;70.40;;;;;;5014534;28;20178;-91
2023/10/21 06:53:32;;;;;;;26.37;20.30;;;14.20;70.50;;;;;;5014626;28;20214;-93
2023/10/21 06:55:58;;;;;;;23.70;18.83;;;14.20;70.70;;;;;;5014264;28;20183;-91
2023/10/21 06:58:26;;;;;;;25.17;19.33;;;14.20;70.80;;;;;;5013458;28;20191;-89
2023/10/21 07:01:03;;;;;;;24.27;19.10;;;14.20;70.90;;;;;;5012946;28;20194;-89
2023/10/21 07:03:29;;;;;;;30.37;20.33;;;14.30;70.90;;;;;;5005872;28;20278;-92
2023/10/21 07:05:55;;;;;;;29.23;20.53;;;14.30;70.90;;;;;;4996413;28;20247;-87
2023/10/21 07:08:21;;;;;;;27.70;20.27;;;14.30;70.90;;;;;;5012717;28;20619;-88
2023/10/21 07:10:46;;;;;;;28.03;21.87;;;14.40;70.80;;;;;;5012178;28;20210;-87
2023/10/21 07:13:12;;;;;;;28.63;20.50;;;14.40;70.70;;;;;;5003111;28;20215;-88
2023/10/21 07:15:40;;;;;;;30.07;22.73;;;14.40;70.90;;;;;;5012196;28;20218;-87
2023/10/21 07:18:06;;;;;;;28.97;21.97;;;14.50;70.80;;;;;;5009037;28;20187;-88
2023/10/21 07:20:32;;;;;;;27.80;21.50;;;14.50;70.40;;;;;;4995111;28;20629;-87
2023/10/21 07:22:57;;;;;;;28.47;22.33;;;14.50;70.50;;;;;;5013062;28;20189;-88
2023/10/21 07:25:23;;;;;;;28.17;22.63;;;14.50;70.50;;;;;;5002277;28;20266;-89
2023/10/21 07:27:49;;;;;;;40.00;21.93;;;14.50;71.00;;;;;;5002410;28;20278;-88
2023/10/21 07:30:15;;;;;;;26.43;21.70;;;14.70;71.30;;;;;;5014201;28;20184;-89
2023/10/21 07:32:41;;;;;;;31.43;22.83;;;14.70;71.00;;;;;;5012522;28;20207;-89
2023/10/21 07:35:07;;;;;;;26.70;22.33;;;14.90;71.10;;;;;;5013420;28;20198;-88
2023/10/21 07:37:33;;;;;;;27.50;21.90;;;14.90;70.60;;;;;;5012714;28;20179;-88
2023/10/21 07:39:59;;;;;;;32.93;24.33;;;14.90;70.40;;;;;;5009593;28;20211;-88
2023/10/21 07:42:25;;;;;;;28.13;22.27;;;14.90;70.30;;;;;;5006279;28;20586;-88
2023/10/21 07:44:52;;;;;;;27.63;22.90;;;15.00;70.70;;;;;;4997391;28;20231;-87
2023/10/21 07:47:18;;;;;;;28.37;23.30;;;15.00;70.60;;;;;;5012859;28;20179;-88
2023/10/21 07:49:44;;;;;;;30.40;21.80;;;15.10;70.30;;;;;;4993216;28;20195;-89
2023/10/21 07:52:10;;;;;;;27.73;21.83;;;15.10;70.00;;;;;;5011082;28;20309;-87
2023/10/21 07:54:39;;;;;;;28.57;22.57;;;15.10;69.60;;;;;;5008373;28;20536;-87
2023/10/21 07:57:08;;;;;;;30.87;22.00;;;15.00;70.10;;;;;;5010558;28;20171;-87
2023/10/21 07:59:34;;;;;;;25.37;20.63;;;15.00;70.40;;;;;;4996261;28;20184;-87
2023/10/21 08:02:00;;;;;;;25.57;22.17;;;14.90;70.40;;;;;;5012084;28;20532;-87
2023/10/21 08:04:26;;;;;;;30.10;22.57;;;14.90;70.50;;;;;;5000558;28;20274;-87
2023/10/21 08:06:51;;;;;;;23.40;20.87;;;15.00;70.90;;;;;;5003336;28;20218;-87
2023/10/21 08:09:19;;;;;;;32.07;22.97;;;15.00;70.90;;;;;;5011646;28;20183;-87
2023/10/21 08:11:45;;;;;;;22.87;19.80;;;15.20;70.90;;;;;;5011351;28;20167;-87
2023/10/21 08:14:11;;;;;;;30.40;21.37;;;15.30;70.60;;;;;;5013499;28;20249;-88
2023/10/21 08:16:37;;;;;;;24.53;21.73;;;15.40;70.50;;;;;;4993835;28;20597;-88
2023/10/21 08:19:04;;;;;;;32.57;23.03;;;15.40;70.10;;;;;;5004877;28;20187;-86
2023/10/21 08:21:31;;;;;;;26.67;22.80;;;15.40;70.20;;;;;;5009090;28;20183;-87
2023/10/21 08:23:57;;;;;;;25.93;20.90;;;15.50;70.20;;;;;;4995211;28;20187;-87
2023/10/21 08:26:24;;;;;;;26.80;21.83;;;15.50;70.10;;;;;;5011831;28;20171;-86
2023/10/21 08:28:50;;;;;;;30.93;22.10;;;15.60;70.10;;;;;;5007579;28;20187;-87
2023/10/21 08:31:15;;;;;;;26.40;22.13;;;15.60;69.80;;;;;;5007668;28;20193;-87
2023/10/21 08:33:41;;;;;;;29.50;22.77;;;15.50;69.60;;;;;;5002562;28;20219;-86
2023/10/21 08:36:18;;;;;;;23.73;21.23;;;15.40;70.00;;;;;;5010335;28;20190;-87
2023/10/21 08:38:44;;;;;;;28.13;23.07;;;15.40;70.20;;;;;;5011174;28;20217;-86
2023/10/21 08:41:12;;;;;;;24.63;21.47;;;15.30;70.30;;;;;;5011557;28;20175;-86
2023/10/21 08:43:40;;;;;;;23.20;20.07;;;15.30;70.70;;;;;;5013370;28;20238;-89
2023/10/21 08:46:07;;;;;;;26.47;22.13;;;15.40;70.90;;;;;;5008685;28;20317;-87
2023/10/21 08:48:34;;;;;;;25.73;20.87;;;15.40;70.60;;;;;;5010769;28;20183;-87
2023/10/21 08:51:02;;;;;;;29.83;21.70;;;15.50;70.60;;;;;;5012988;28;20684;-87
2023/10/21 08:53:31;;;;;;;24.47;21.53;;;15.50;70.50;;;;;;5017021;28;20206;-87
2023/10/21 08:55:57;;;;;;;25.57;20.93;;;15.50;70.20;;;;;;5012546;28;20189;-87
2023/10/21 08:58:28;;;;;;;26.57;20.93;;;15.40;70.40;;;;;;5005557;28;20203;-86
2023/10/21 09:00:55;;;;;;;27.37;21.00;;;15.40;70.70;;;;;;5010474;28;20211;-90
2023/10/21 09:03:20;;;;;;;25.90;19.90;;;15.40;70.70;;;;;;5012595;28;20222;-90
2023/10/21 09:06:13;;;;;;;23.30;20.20;;;15.40;70.90;;;;;;5013591;28;20203;-88
2023/10/21 09:08:42;;;;;;;24.83;20.70;;;15.40;70.80;;;;;;5014243;28;20182;-89
2023/10/21 09:11:12;;;;;;;22.47;19.30;;;15.50;71.90;;;;;;5010209;28;20179;-89
2023/10/21 09:13:39;;;;;;;27.40;19.77;;;15.60;71.30;;;;;;5014420;28;20238;-91
2023/10/21 09:16:25;;;;;;;20.20;18.00;;;15.60;70.40;;;;;;5011880;28;20179;-88
2023/10/21 09:19:05;;;;;;;24.47;18.70;;;15.60;70.70;;;;;;5013673;28;20790;-91
2023/10/21 09:21:44;;;;;;;24.63;18.87;;;15.70;71.10;;;;;;5015167;28;20218;-90
2023/10/21 09:24:20;;;;;;;21.93;18.30;;;15.80;71.10;;;;;;5003342;28;20274;-90
2023/10/21 09:26:47;;;;;;;25.47;20.07;;;15.90;71.00;;;;;;5009826;28;20195;-91
2023/10/21 09:29:16;;;;;;;20.50;17.27;;;16.20;71.00;;;;;;5027350;28;20210;-89
2023/10/21 09:31:55;;;;;;;21.27;17.53;;;16.10;70.40;;;;;;5012171;28;20270;-92
2023/10/21 09:34:27;;;;;;;23.23;16.80;;;16.10;70.20;;;;;;5011193;28;20273;-90
2023/10/21 09:36:58;;;;;;;22.50;17.47;;;16.20;70.50;;;;;;5029488;28;20191;-88
2023/10/21 09:39:26;;;;;;;21.83;18.70;;;16.30;70.40;;;;;;5013847;28;20195;-91
2023/10/21 09:41:53;;;;;;;20.97;18.73;;;16.30;70.10;;;;;;5012470;28;20183;-87
2023/10/21 09:44:19;;;;;;;21.20;17.43;;;16.30;69.90;;;;;;5031310;28;20622;-90
2023/10/21 09:46:47;;;;;;;21.73;18.30;;;16.40;69.90;;;;;;5007841;28;20183;-88
2023/10/21 09:49:14;;;;;;;24.90;17.93;;;16.40;69.50;;;;;;5014931;28;20190;-91
2023/10/21 09:52:09;;;;;;;20.03;16.93;;;16.40;69.50;;;;;;5014328;28;20206;-90
2023/10/21 09:54:42;;;;;;;25.77;18.73;;;16.40;69.80;;;;;;4964904;28;20187;-88
2023/10/21 09:57:12;;;;;;;19.50;17.50;;;16.40;70.00;;;;;;4978640;28;20218;-90
2023/10/21 09:59:38;;;;;;;23.47;18.77;;;16.40;70.00;;;;;;4978069;28;20180;-91
2023/10/21 10:02:07;;;;;;;23.00;18.60;;;16.50;70.30;;;;;;4978166;28;20246;-90
2023/10/21 10:04:35;;;;;;;20.27;17.10;;;16.60;70.20;;;;;;4979214;28;20551;-91
2023/10/21 10:07:06;;;;;;;21.07;17.10;;;16.70;70.40;;;;;;4995254;28;20617;-88
2023/10/21 10:09:36;;;;;;;19.07;16.33;;;16.90;70.30;;;;;;4993270;28;20188;-91
2023/10/21 10:12:20;;;;;;;17.67;15.73;;;17.10;70.10;;;;;;4977656;28;20223;-91
2023/10/21 10:14:46;;;;;;;22.57;16.37;;;17.10;69.70;;;;;;4977697;28;20184;-91
2023/10/21 10:17:13;;;;;;;22.00;16.70;;;17.20;70.00;;;;;;4988306;28;20247;-92
2023/10/21 10:19:40;;;;;;;20.17;15.73;;;17.40;70.30;;;;;;4970854;28;20638;-89
2023/10/21 10:22:28;;;;;;;18.40;15.90;;;17.60;70.10;;;;;;4970718;28;20199;-91
2023/10/21 10:25:15;;;;;;;19.03;15.70;;;17.70;69.50;;;;;;4975206;28;20192;-88
2023/10/21 10:27:42;;;;;;;19.20;16.07;;;17.80;68.80;;;;;;4984217;28;20192;-91
2023/10/21 10:30:08;;;;;;;18.77;16.03;;;17.90;69.00;;;;;;4992549;28;20245;-88
2023/10/21 10:32:43;;;;;;;22.50;14.97;;;17.90;68.50;;;;;;5030449;28;20210;-88
2023/10/21 10:35:08;;;;;;;17.70;15.67;;;17.80;68.00;;;;;;5004650;28;20193;-90
2023/10/21 10:37:34;;;;;;;21.80;17.53;;;17.70;68.00;;;;;;5010128;28;20271;-90
2023/10/21 10:40:05;;;;;;;19.57;17.03;;;17.80;68.30;;;;;;5014366;28;20274;-88
2023/10/21 10:42:34;;;;;;;20.23;16.63;;;17.70;68.50;;;;;;5007975;28;20649;-89
2023/10/21 10:45:00;;;;;;;22.00;17.73;;;17.80;68.80;;;;;;5006314;28;20258;-89
2023/10/21 10:47:28;;;;;;;18.93;16.87;;;17.90;68.40;;;;;;5013763;28;20214;-89
2023/10/21 10:50:00;;;;;;;20.03;17.23;;;17.90;67.60;;;;;;5029862;28;20195;-89
2023/10/21 10:52:32;;;;;;;25.37;18.23;;;17.90;67.70;;;;;;5013188;28;20281;-90
2023/10/21 10:54:59;;;;;;;19.03;16.77;;;17.80;67.60;;;;;;5012718;28;20191;-89
2023/10/21 10:57:25;;;;;;;18.30;16.37;;;17.70;67.70;;;;;;5012589;28;20179;-89
2023/10/21 10:59:50;;;;;;;19.57;17.50;;;17.70;68.00;;;;;;5010628;28;20300;-89
2023/10/21 11:02:17;;;;;;;19.17;17.07;;;17.60;67.70;;;;;;5011319;28;20195;-89
2023/10/21 11:04:46;;;;;;;21.03;16.10;;;17.50;67.90;;;;;;5008774;28;20722;-89
2023/10/21 11:07:12;;;;;;;19.77;17.53;;;17.50;68.10;;;;;;5009926;28;20190;-88
2023/10/21 11:09:38;;;;;;;21.73;18.83;;;17.60;68.80;;;;;;5007193;28;20183;-91
2023/10/21 11:12:04;;;;;;;24.77;19.67;;;17.60;68.70;;;;;;5012049;28;20215;-90
2023/10/21 11:14:30;;;;;;;24.87;19.03;;;17.70;68.00;;;;;;5009227;28;20214;-89
2023/10/21 11:16:56;;;;;;;21.90;19.53;;;17.70;68.10;;;;;;5013417;28;20183;-89
2023/10/21 11:19:23;;;;;;;20.73;18.57;;;17.80;67.90;;;;;;5011818;28;20183;-87
2023/10/21 11:21:48;;;;;;;21.93;19.23;;;17.70;67.60;;;;;;5011394;28;20195;-91
2023/10/21 11:24:15;;;;;;;22.57;19.87;;;17.70;68.00;;;;;;5011556;28;20182;-91
2023/10/21 11:26:42;;;;;;;22.40;19.70;;;17.70;68.10;;;;;;5009596;28;20214;-91
2023/10/21 11:29:08;;;;;;;21.27;19.07;;;17.80;68.20;;;;;;5011828;28;20239;-90
2023/10/21 11:31:35;;;;;;;22.37;19.23;;;17.90;68.50;;;;;;5006120;28;20242;-93
2023/10/21 11:34:17;;;;;;;21.63;18.87;;;18.00;68.40;;;;;;4999189;28;20269;-91
2023/10/21 11:36:46;;;;;;;54.77;39.33;;;18.20;68.10;;;;;;5011934;28;20254;-91
2023/10/21 11:39:14;;;;;;;49.53;32.90;;;18.30;67.70;;;;;;5011110;28;20175;-88
2023/10/21 11:41:47;;;;;;;70.63;46.10;;;18.30;67.60;;;;;;5011799;28;20283;-91
2023/10/21 11:44:15;;;;;;;60.83;47.30;;;18.40;67.70;;;;;;4998854;28;20314;-91
2023/10/21 11:46:42;;;;;;;27.50;24.43;;;18.40;67.50;;;;;;5006730;28;20522;-89
2023/10/21 11:49:14;;;;;;;29.80;22.73;;;18.40;67.50;;;;;;5009670;28;20182;-92
2023/10/21 11:51:46;;;;;;;43.80;33.63;;;18.50;67.70;;;;;;5012040;28;20184;-87
2023/10/21 11:55:20;;;;;;;38.83;31.90;;;18.60;67.50;;;;;;5011248;28;20241;-88
2023/10/21 12:37:20;;;;;;;85.67;69.70;;;19.10;67.90;;;;;;5015065;28;20290;-89
2023/10/21 12:42:21;;;;;;;58.10;51.23;;;19.30;67.70;;;;;;5011468;28;20237;-91
2023/10/21 12:44:52;;;;;;;78.77;51.33;;;19.40;67.50;;;;;;5006503;28;20261;-89
2023/10/21 12:47:18;;;;;;;116.83;63.07;;;19.50;67.50;;;;;;5012072;28;20183;-88
2023/10/21 12:49:45;;;;;;;71.33;42.77;;;19.50;67.40;;;;;;5008802;28;20241;-92
2023/10/21 12:52:11;;;;;;;103.23;76.00;;;19.60;67.30;;;;;;5014282;28;20300;-88
2023/10/21 12:54:37;;;;;;;71.63;52.93;;;19.60;66.70;;;;;;5014382;28;20233;-91
2023/10/21 12:57:03;;;;;;;140.10;94.93;;;19.70;66.50;;;;;;5009677;28;20274;-88
2023/10/21 12:59:29;;;;;;;127.70;84.03;;;19.70;66.50;;;;;;5004199;28;20639;-89
2023/10/21 13:01:55;;;;;;;102.03;76.47;;;19.80;66.30;;;;;;5011728;28;20206;-89
2023/10/21 13:04:21;;;;;;;135.80;98.17;;;19.90;66.30;;;;;;5009370;28;20183;-91
2023/10/21 13:06:47;;;;;;;108.63;71.53;;;19.90;66.10;;;;;;5011016;28;20183;-89
2023/10/21 13:09:23;;;;;;;148.30;87.50;;;19.90;66.00;;;;;;5012304;28;20179;-89